LEAL METAR and TAF | Updated Today

LEAL METAR

Alicante International Airport

Observation time: 10 min. ago

LEAL 260100Z VRB02KT CAVOK 20/18 Q1009 NOSIG

Need help? Read our tutorial on how to read METARs or read the parsed version below.

Alicante International Airport (LEAL) METAR

  • Weather conditions on Sun, 26 Jun 2022 01:00:00 +0000 (10 min. ago):
  • Present conditions: Dry
  • Clouds: Clear skies
  • Visibility: Greater than 10 km
  • Wind: Variable at 2 knots
  • Temperature: 20 celsius
  • Dew point: 18 celsius
  • Pressure: 1009 millibars
  • Remarks: None


Useful to know...

LEAL TAF

Alicante International Airport

TAF LEAL 252300Z 2600/2624 VRB03KT CAVOK TX29/2612Z TN19/2605Z PROB30 TEMPO 2600/2606 BKN012 BECMG 2607/2609 09010KT BECMG 2621/2623 VRB03KT
Observation time: 2:10 hr. ago
Need help? Read our tutorial on how to read TAFs or read the parsed version below.

Parsed version of TAF for Alicante International Airport (LEAL)

  • From 26 June at 00:00 UTC, to day 26 of the month at 24:00 UTC
  • Visibility: Greater than 10 km
  • Wind: Variable at 3
  • Expected to arise temporarily, from 26 June at 00:00 UTC, to day 26 of the month at 06:00 UTC
    Probability of 30%
  • Clouds: Broken sky at 366 meters
  • Expected to arise soon, from 26 June at 07:00 UTC, to day 26 of the month at 09:00 UTC
  • Wind: 90 degrees at 10
  • Expected to arise soon, from 26 June at 21:00 UTC, to day 26 of the month at 23:00 UTC
  • Wind: Variable at 3